createdAt,value
2022-08-09T00:00:08.188Z,20.96
2022-08-09T00:02:49.051Z,20.89
2022-08-09T00:06:18.957Z,20.89
2022-08-09T00:08:11.298Z,20.88
2022-08-09T00:10:40.091Z,20.80
2022-08-09T00:13:16.813Z,20.78
2022-08-09T00:15:59.992Z,20.79
2022-08-09T00:18:34.750Z,20.79
2022-08-09T00:21:07.831Z,20.64
2022-08-09T00:23:56.599Z,20.58
2022-08-09T00:26:32.308Z,20.57
2022-08-09T00:29:01.671Z,20.52
2022-08-09T00:31:57.398Z,20.45
2022-08-09T00:34:19.163Z,20.37
2022-08-09T00:36:46.566Z,20.42
2022-08-09T00:40:10.438Z,20.30
2022-08-09T00:44:10.889Z,20.23
2022-08-09T00:44:47.256Z,20.17
2022-08-09T00:47:15.577Z,20.10
2022-08-09T00:49:52.544Z,19.95
2022-08-09T00:52:28.056Z,19.95
2022-08-09T00:55:00.275Z,19.93
2022-08-09T00:57:34.300Z,19.93
2022-08-09T01:00:21.264Z,19.91
2022-08-09T01:02:51.989Z,19.97
2022-08-09T01:05:46.454Z,19.94
2022-08-09T01:08:26.660Z,19.86
2022-08-09T01:11:09.378Z,19.81
2022-08-09T01:14:00.202Z,19.71
2022-08-09T01:16:47.285Z,19.70
2022-08-09T01:19:39.928Z,19.68
2022-08-09T01:22:21.698Z,19.69
2022-08-09T01:24:52.159Z,19.65
2022-08-09T01:27:20.318Z,19.59
2022-08-09T01:29:56.305Z,19.52
2022-08-09T01:32:39.057Z,19.49
2022-08-09T01:35:38.337Z,19.50
2022-08-09T01:38:15.395Z,19.41
2022-08-09T01:40:53.126Z,19.34
2022-08-09T01:43:51.013Z,19.34
2022-08-09T01:46:25.127Z,19.35
2022-08-09T01:48:59.879Z,19.32
2022-08-09T01:51:28.631Z,19.33
2022-08-09T01:54:07.280Z,19.28
2022-08-09T01:56:35.466Z,19.24
2022-08-09T01:59:07.930Z,19.19
2022-08-09T02:01:59.231Z,19.07
2022-08-09T02:04:23.567Z,18.98
2022-08-09T02:07:17.803Z,19.03
2022-08-09T02:10:29.778Z,19.14
2022-08-09T02:12:57.398Z,19.24
2022-08-09T02:15:27.266Z,19.10
2022-08-09T02:18:15.627Z,19.00
2022-08-09T02:20:45.825Z,18.97
2022-08-09T02:23:42.952Z,18.98
2022-08-09T02:26:27.170Z,18.97
2022-08-09T02:28:57.846Z,18.94
2022-08-09T02:31:36.299Z,18.89
2022-08-09T02:34:13.626Z,18.89
2022-08-09T02:36:54.236Z,18.90
2022-08-09T02:39:33.532Z,18.86
2022-08-09T02:42:09.183Z,18.87
2022-08-09T02:44:38.334Z,18.87
2022-08-09T02:47:07.398Z,18.88
2022-08-09T02:49:41.690Z,18.85
2022-08-09T02:52:13.044Z,18.78
2022-08-09T02:54:54.016Z,18.80
2022-08-09T02:57:24.950Z,18.78
2022-08-09T03:00:20.590Z,18.75
2022-08-09T03:02:58.046Z,18.70
2022-08-09T03:05:28.381Z,18.65
2022-08-09T03:07:55.795Z,18.66
2022-08-09T03:10:25.162Z,18.63
2022-08-09T03:12:52.774Z,18.59
2022-08-09T03:15:20.866Z,18.50
2022-08-09T03:17:58.047Z,18.46
2022-08-09T03:20:29.632Z,18.42
2022-08-09T03:22:58.278Z,18.41
2022-08-09T03:26:03.260Z,18.39
2022-08-09T03:28:15.430Z,18.31
2022-08-09T03:30:44.058Z,18.25
2022-08-09T03:33:18.676Z,18.20
2022-08-09T03:36:15.730Z,18.24
2022-08-09T03:38:35.622Z,18.16
2022-08-09T03:41:04.294Z,18.13
2022-08-09T03:43:31.750Z,18.08
2022-08-09T03:46:03.949Z,17.98
2022-08-09T03:48:51.619Z,17.91
2022-08-09T03:51:57.588Z,17.88
2022-08-09T03:54:11.135Z,17.87
2022-08-09T03:56:41.171Z,17.85
2022-08-09T03:59:17.055Z,17.80
2022-08-09T04:01:49.331Z,17.80
2022-08-09T04:04:17.011Z,17.74
2022-08-09T04:06:49.112Z,17.71
2022-08-09T04:09:47.655Z,17.67
2022-08-09T04:12:30.800Z,17.62
2022-08-09T04:15:01.555Z,17.55
2022-08-09T04:17:29.853Z,17.58
2022-08-09T04:19:56.765Z,17.61
2022-08-09T04:22:23.771Z,17.64
2022-08-09T04:24:50.519Z,17.61
2022-08-09T04:27:22.101Z,17.64
2022-08-09T04:29:50.988Z,17.64
2022-08-09T04:32:23.509Z,17.60
2022-08-09T04:34:58.520Z,17.57
2022-08-09T04:37:45.647Z,17.58
2022-08-09T04:40:19.193Z,17.51
2022-08-09T04:42:48.591Z,17.49
2022-08-09T04:45:20.392Z,17.54
2022-08-09T04:48:00.994Z,17.59
2022-08-09T04:50:31.914Z,17.66
2022-08-09T04:53:02.156Z,17.66
2022-08-09T04:55:37.860Z,17.72
2022-08-09T04:58:09.687Z,17.81
2022-08-09T05:00:36.896Z,17.87
2022-08-09T05:03:40.635Z,17.90
2022-08-09T05:06:06.863Z,17.91
2022-08-09T05:08:35.108Z,17.98
2022-08-09T05:11:02.729Z,18.05
2022-08-09T05:13:32.892Z,18.10
2022-08-09T05:16:00.928Z,18.12
2022-08-09T05:18:39.558Z,18.14
2022-08-09T05:21:22.840Z,18.23
2022-08-09T05:23:59.530Z,18.29
2022-08-09T05:26:45.344Z,18.37
2022-08-09T05:29:22.149Z,18.43
2022-08-09T05:31:56.745Z,18.53
2022-08-09T05:34:30.188Z,18.70
2022-08-09T05:37:06.489Z,18.88
2022-08-09T05:39:36.038Z,19.02
2022-08-09T05:42:17.662Z,19.08
2022-08-09T05:44:50.429Z,19.16
2022-08-09T05:47:19.147Z,19.30
2022-08-09T05:50:25.456Z,19.45
2022-08-09T05:52:33.023Z,19.56
2022-08-09T05:55:06.826Z,19.69
2022-08-09T05:57:55.511Z,19.78
2022-08-09T06:00:22.140Z,19.91
2022-08-09T06:02:49.147Z,20.01
2022-08-09T06:05:31.067Z,20.10
2022-08-09T06:08:09.260Z,20.23
2022-08-09T06:10:38.529Z,20.34
2022-08-09T06:13:20.194Z,20.44
2022-08-09T06:15:51.271Z,20.54
2022-08-09T06:18:24.923Z,20.65
2022-08-09T06:20:57.107Z,20.75
2022-08-09T06:23:55.033Z,20.84
2022-08-09T06:26:14.391Z,20.98
2022-08-09T06:28:43.380Z,21.05
2022-08-09T06:31:10.561Z,21.15
2022-08-09T06:33:40.579Z,21.24
2022-08-09T06:36:09.468Z,21.33
2022-08-09T06:38:38.782Z,21.41
2022-08-09T06:41:18.863Z,21.49
2022-08-09T06:43:48.264Z,21.55
2022-08-09T06:46:40.107Z,21.60
2022-08-09T06:49:02.782Z,21.72
2022-08-09T06:51:39.055Z,21.79
2022-08-09T06:54:09.268Z,21.87
2022-08-09T06:56:45.376Z,21.96
2022-08-09T07:00:50.760Z,22.06
2022-08-09T07:02:03.694Z,22.15
2022-08-09T07:04:31.951Z,22.23
2022-08-09T07:07:00.291Z,22.31
2022-08-09T07:09:56.050Z,22.39
2022-08-09T07:12:18.686Z,22.59
2022-08-09T07:14:51.286Z,22.65
2022-08-09T07:17:21.500Z,22.74
2022-08-09T07:19:50.653Z,22.81
2022-08-09T07:22:18.659Z,22.89
2022-08-09T07:25:01.403Z,23.01
2022-08-09T07:27:34.436Z,23.10
2022-08-09T07:30:13.416Z,23.23
2022-08-09T07:32:41.524Z,23.40
2022-08-09T07:35:12.329Z,23.50
2022-08-09T07:37:43.444Z,23.73
2022-08-09T07:40:27.078Z,23.85
2022-08-09T07:43:00.817Z,24.01
2022-08-09T07:45:39.422Z,24.13
2022-08-09T07:48:28.781Z,24.30
2022-08-09T07:51:10.372Z,24.53
2022-08-09T07:54:05.072Z,24.73
2022-08-09T07:56:33.902Z,24.82
2022-08-09T07:59:01.137Z,24.95
2022-08-09T08:01:34.316Z,25.07
2022-08-09T08:04:02.628Z,25.21
2022-08-09T08:06:31.584Z,25.34
2022-08-09T08:09:03.511Z,25.49
2022-08-09T08:12:23.870Z,25.63
2022-08-09T08:14:18.583Z,25.87
2022-08-09T08:17:00.751Z,26.05
2022-08-09T08:19:35.057Z,26.22
2022-08-09T08:22:02.321Z,26.35
2022-08-09T08:24:34.201Z,26.48
2022-08-09T08:27:06.821Z,26.59
2022-08-09T08:29:48.600Z,26.72
2022-08-09T08:32:24.153Z,26.81
2022-08-09T08:34:58.504Z,26.92
2022-08-09T08:37:41.135Z,26.91
2022-08-09T08:40:16.322Z,27.02
2022-08-09T08:42:47.322Z,27.09
2022-08-09T08:45:14.809Z,27.13
2022-08-09T08:47:45.221Z,27.12
2022-08-09T08:50:18.266Z,27.20
2022-08-09T08:52:59.485Z,27.26
2022-08-09T08:55:27.834Z,27.31
2022-08-09T08:57:57.262Z,27.35
2022-08-09T09:00:30.556Z,27.38
2022-08-09T09:03:11.486Z,27.47
2022-08-09T09:06:00.786Z,27.50
2022-08-09T09:08:38.110Z,27.49
2022-08-09T09:11:08.945Z,27.58
2022-08-09T09:13:56.282Z,27.56
2022-08-09T09:16:34.583Z,27.54
2022-08-09T09:19:22.767Z,27.54
2022-08-09T09:22:11.586Z,27.60
2022-08-09T09:24:59.100Z,27.70
2022-08-09T09:28:06.931Z,27.89
2022-08-09T09:30:41.334Z,27.98
2022-08-09T09:33:16.782Z,27.96
2022-08-09T09:36:01.585Z,27.92
2022-08-09T09:38:51.548Z,27.96
2022-08-09T09:41:32.546Z,27.98
2022-08-09T09:44:12.890Z,27.93
2022-08-09T09:46:50.429Z,27.91
2022-08-09T09:49:56.028Z,27.98
2022-08-09T09:52:16.327Z,28.09
2022-08-09T09:55:23.734Z,28.05
2022-08-09T09:58:07.565Z,28.05
2022-08-09T10:00:55.925Z,28.14
2022-08-09T10:03:39.807Z,28.22
2022-08-09T10:06:07.061Z,28.20
2022-08-09T10:08:43.226Z,28.24
2022-08-09T10:12:01.413Z,28.26
2022-08-09T10:14:30.557Z,28.37
2022-08-09T10:17:38.700Z,28.35
2022-08-09T10:19:47.172Z,28.35
2022-08-09T10:22:38.994Z,28.46
2022-08-09T10:25:12.538Z,28.48
2022-08-09T10:27:55.803Z,28.51
2022-08-09T10:32:13.572Z,28.61
2022-08-09T10:34:05.192Z,28.68
2022-08-09T10:36:01.194Z,28.80
2022-08-09T10:38:55.489Z,28.83
2022-08-09T10:41:20.679Z,28.84
2022-08-09T10:43:58.664Z,28.81
2022-08-09T10:46:55.213Z,28.75
2022-08-09T10:49:50.977Z,28.78
2022-08-09T10:52:42.610Z,28.77
2022-08-09T10:55:25.792Z,28.88
2022-08-09T10:57:55.404Z,29.06
2022-08-09T11:00:29.312Z,29.13
2022-08-09T11:03:46.884Z,29.27
2022-08-09T11:06:18.506Z,29.31
2022-08-09T11:08:51.165Z,29.29
2022-08-09T11:11:19.964Z,29.36
2022-08-09T11:13:50.104Z,29.39
2022-08-09T11:16:40.771Z,29.53
2022-08-09T11:19:10.131Z,29.64
2022-08-09T11:22:10.865Z,29.78
2022-08-09T11:25:08.382Z,29.90
2022-08-09T11:28:03.744Z,29.99
2022-08-09T11:30:38.045Z,30.05
2022-08-09T11:33:08.087Z,30.06
2022-08-09T11:35:55.626Z,30.05
2022-08-09T11:38:28.814Z,29.94
2022-08-09T11:41:37.866Z,29.99
2022-08-09T11:44:06.983Z,30.13
2022-08-09T11:46:54.269Z,30.30
2022-08-09T11:50:55.070Z,30.32
2022-08-09T11:53:15.941Z,30.28
2022-08-09T11:55:53.889Z,30.30
2022-08-09T11:58:32.399Z,30.35
2022-08-09T12:01:08.738Z,30.45
2022-08-09T12:03:56.684Z,30.47
2022-08-09T12:06:32.758Z,30.66
2022-08-09T12:09:17.582Z,30.59
2022-08-09T12:12:03.482Z,30.65
2022-08-09T12:14:40.977Z,30.70
2022-08-09T12:17:34.336Z,30.72
2022-08-09T12:20:21.378Z,30.76
2022-08-09T12:23:01.230Z,30.74
2022-08-09T12:25:37.457Z,30.71
2022-08-09T12:29:13.569Z,30.57
2022-08-09T12:31:58.983Z,30.58
2022-08-09T12:34:05.307Z,30.75
2022-08-09T12:36:33.758Z,30.87
2022-08-09T12:39:04.296Z,31.01
2022-08-09T12:41:39.171Z,31.06
2022-08-09T12:44:10.170Z,30.98
2022-08-09T12:46:49.075Z,30.98
2022-08-09T12:49:17.287Z,30.99
2022-08-09T12:52:02.850Z,31.00
2022-08-09T12:56:12.926Z,30.89
2022-08-09T12:57:36.583Z,30.74
2022-08-09T13:00:25.118Z,30.82
2022-08-09T13:03:01.002Z,30.86
2022-08-09T13:05:51.699Z,30.90
2022-08-09T13:08:40.158Z,31.08
2022-08-09T13:11:13.068Z,31.22
2022-08-09T13:14:40.976Z,31.36
2022-08-09T13:17:04.063Z,31.47
2022-08-09T13:20:10.518Z,31.49
2022-08-09T13:22:36.328Z,31.54
2022-08-09T13:25:14.701Z,31.52
2022-08-09T13:27:54.343Z,31.46
2022-08-09T13:30:49.425Z,31.30
2022-08-09T13:33:11.677Z,31.18
2022-08-09T13:36:39.025Z,31.19
2022-08-09T13:38:46.073Z,31.37
2022-08-09T13:41:57.551Z,31.55
2022-08-09T13:44:13.728Z,31.78
2022-08-09T13:47:29.287Z,31.88
2022-08-09T13:49:37.581Z,31.83
2022-08-09T13:52:05.638Z,31.68
2022-08-09T13:54:36.473Z,31.58
2022-08-09T13:57:35.127Z,31.46
2022-08-09T13:59:58.291Z,31.44
2022-08-09T14:02:26.149Z,31.48
2022-08-09T14:04:59.645Z,31.48
2022-08-09T14:07:30.324Z,31.54
2022-08-09T14:10:17.167Z,31.71
2022-08-09T14:12:55.909Z,31.93
2022-08-09T14:16:09.284Z,31.99
2022-08-09T14:18:19.514Z,32.01
2022-08-09T14:20:46.885Z,32.02
2022-08-09T14:23:20.367Z,32.18
2022-08-09T14:25:52.031Z,32.26
2022-08-09T14:28:19.304Z,32.23
2022-08-09T14:30:47.838Z,32.28
2022-08-09T14:33:20.827Z,32.20
2022-08-09T14:35:52.406Z,32.13
2022-08-09T14:38:20.045Z,32.19
2022-08-09T14:41:02.034Z,32.31
2022-08-09T14:43:47.754Z,32.43
2022-08-09T14:46:54.753Z,32.43
2022-08-09T14:49:10.514Z,32.46
2022-08-09T14:51:42.008Z,32.50
2022-08-09T14:54:09.623Z,32.58
2022-08-09T14:56:57.280Z,32.70
2022-08-09T14:59:23.703Z,32.70
2022-08-09T15:01:50.450Z,32.69
2022-08-09T15:04:17.157Z,32.60
2022-08-09T15:06:49.730Z,32.57
2022-08-09T15:09:16.842Z,32.58
2022-08-09T15:12:04.963Z,32.60
2022-08-09T15:14:38.531Z,32.60
2022-08-09T15:17:09.834Z,32.64
2022-08-09T15:19:54.391Z,32.56
2022-08-09T15:22:26.078Z,32.64
2022-08-09T15:24:53.934Z,32.74
2022-08-09T15:27:21.246Z,32.77
2022-08-09T15:30:57.627Z,32.83
2022-08-09T15:32:35.799Z,32.98
2022-08-09T15:35:40.293Z,33.13
2022-08-09T15:37:57.169Z,33.37
2022-08-09T15:40:37.236Z,34.13
2022-08-09T15:43:10.248Z,35.95
2022-08-09T15:46:07.219Z,39.18
2022-08-09T15:48:29.126Z,43.89
2022-08-09T15:50:58.049Z,47.57
2022-08-09T15:54:03.357Z,50.04
2022-08-09T15:56:21.643Z,52.08
2022-08-09T15:59:05.337Z,53.87
2022-08-09T16:01:35.530Z,55.59
2022-08-09T16:04:03.351Z,56.98
2022-08-09T16:06:35.782Z,58.19
2022-08-09T16:09:05.885Z,58.44
2022-08-09T16:11:33.233Z,58.65
2022-08-09T16:14:04.727Z,58.47
2022-08-09T16:16:37.205Z,58.02
2022-08-09T16:19:06.078Z,57.68
2022-08-09T16:21:35.619Z,57.46
2022-08-09T16:24:04.718Z,57.91
2022-08-09T16:26:35.254Z,58.06
2022-08-09T16:29:10.407Z,58.36
2022-08-09T16:32:18.924Z,58.96
2022-08-09T16:34:24.963Z,59.23
2022-08-09T16:36:51.750Z,58.95
2022-08-09T16:39:19.278Z,58.63
2022-08-09T16:42:02.690Z,58.70
2022-08-09T16:44:32.375Z,58.18
2022-08-09T16:47:04.107Z,57.35
2022-08-09T16:50:29.192Z,56.61
2022-08-09T16:52:34.805Z,56.19
2022-08-09T16:55:01.679Z,55.18
2022-08-09T16:58:08.243Z,54.93
2022-08-09T17:00:16.058Z,54.63
2022-08-09T17:02:43.918Z,54.78
2022-08-09T17:05:19.644Z,54.09
2022-08-09T17:08:43.014Z,53.46
2022-08-09T17:10:34.129Z,53.46
2022-08-09T17:13:03.419Z,53.19
2022-08-09T17:15:59.203Z,52.82
2022-08-09T17:18:27.059Z,52.69
2022-08-09T17:20:56.906Z,52.45
2022-08-09T17:23:37.089Z,51.86
2022-08-09T17:26:10.468Z,51.95
2022-08-09T17:28:39.373Z,51.94
2022-08-09T17:31:06.062Z,50.57
2022-08-09T17:33:35.974Z,47.11
2022-08-09T17:36:05.393Z,43.88
2022-08-09T17:38:39.395Z,41.25
2022-08-09T17:41:08.029Z,39.28
2022-08-09T17:43:37.283Z,37.85
2022-08-09T17:46:09.110Z,36.27
2022-08-09T17:48:46.617Z,35.06
2022-08-09T17:51:20.077Z,34.49
2022-08-09T17:53:53.042Z,34.20
2022-08-09T17:56:29.131Z,33.68
2022-08-09T17:59:03.166Z,33.29
2022-08-09T18:01:57.951Z,32.90
2022-08-09T18:04:22.641Z,32.52
2022-08-09T18:06:54.443Z,32.25
2022-08-09T18:09:23.131Z,31.95
2022-08-09T18:12:14.823Z,31.76
2022-08-09T18:14:49.879Z,31.52
2022-08-09T18:17:18.569Z,31.15
2022-08-09T18:20:54.368Z,30.96
2022-08-09T18:22:40.306Z,30.74
2022-08-09T18:25:17.768Z,30.68
2022-08-09T18:28:05.332Z,30.57
2022-08-09T18:30:48.905Z,30.42
2022-08-09T18:33:16.441Z,30.21
2022-08-09T18:35:59.027Z,30.13
2022-08-09T18:38:27.726Z,29.95
2022-08-09T18:40:55.454Z,29.81
2022-08-09T18:43:22.982Z,29.75
2022-08-09T18:46:47.019Z,29.75
2022-08-09T18:48:37.090Z,29.58
2022-08-09T18:51:05.015Z,29.34
2022-08-09T18:53:56.981Z,29.25
2022-08-09T18:56:27.183Z,29.22
2022-08-09T18:58:56.555Z,29.03
2022-08-09T19:01:24.095Z,28.81
2022-08-09T19:03:54.659Z,28.68
2022-08-09T19:06:28.737Z,28.61
2022-08-09T19:09:02.638Z,28.53
2022-08-09T19:11:37.813Z,28.44
2022-08-09T19:14:06.706Z,28.32
2022-08-09T19:16:36.316Z,28.24
2022-08-09T19:19:25.047Z,28.07
2022-08-09T19:22:06.321Z,27.85
2022-08-09T19:24:38.295Z,27.71
2022-08-09T19:27:07.556Z,27.60
2022-08-09T19:30:21.183Z,27.53
2022-08-09T19:32:26.673Z,27.30
2022-08-09T19:34:58.414Z,27.01
2022-08-09T19:37:25.653Z,26.83
2022-08-09T19:40:04.776Z,26.81
2022-08-09T19:42:32.647Z,26.80
2022-08-09T19:44:59.605Z,26.72
2022-08-09T19:47:27.133Z,26.62
2022-08-09T19:50:07.977Z,26.55
2022-08-09T19:52:49.638Z,26.43
2022-08-09T19:55:30.468Z,26.24
2022-08-09T19:57:57.718Z,26.11
2022-08-09T20:00:24.427Z,26.01
2022-08-09T20:04:10.992Z,25.91
2022-08-09T20:05:45.991Z,25.76
2022-08-09T20:08:16.152Z,25.70
2022-08-09T20:10:52.506Z,25.55
2022-08-09T20:13:21.150Z,25.31
2022-08-09T20:16:35.773Z,25.16
2022-08-09T20:18:35.050Z,24.99
2022-08-09T20:21:02.260Z,24.84
2022-08-09T20:23:39.820Z,24.68
2022-08-09T20:26:08.039Z,24.65
2022-08-09T20:28:47.713Z,24.63
2022-08-09T20:31:15.779Z,24.39
2022-08-09T20:33:44.310Z,24.08
2022-08-09T20:36:12.440Z,24.17
2022-08-09T20:41:35.019Z,24.20
2022-08-09T20:44:09.797Z,24.21
2022-08-09T20:46:43.374Z,24.26
2022-08-09T20:49:13.008Z,24.29
2022-08-09T20:51:42.318Z,24.27
2022-08-09T20:54:16.641Z,24.15
2022-08-09T20:56:46.818Z,24.01
2022-08-09T20:59:16.746Z,23.98
2022-08-09T21:01:51.028Z,23.83
2022-08-09T21:05:52.070Z,23.82
2022-08-09T21:07:11.751Z,23.89
2022-08-09T21:09:55.543Z,23.87
2022-08-09T21:15:12.905Z,23.75
2022-08-09T21:18:21.398Z,23.64
2022-08-09T21:20:30.028Z,23.59
2022-08-09T21:22:58.387Z,23.51
2022-08-09T21:25:55.850Z,23.40
2022-08-09T21:28:36.258Z,23.36
2022-08-09T21:31:13.761Z,23.32
2022-08-09T21:33:51.019Z,23.27
2022-08-09T21:36:25.719Z,23.18
2022-08-09T21:38:56.678Z,23.01
2022-08-09T21:42:05.400Z,22.96
2022-08-09T21:44:32.879Z,22.85
2022-08-09T21:47:04.706Z,22.91
2022-08-09T21:49:39.656Z,22.91
2022-08-09T21:52:16.297Z,22.91
2022-08-09T21:55:03.206Z,22.90
2022-08-09T21:57:38.894Z,22.89
2022-08-09T22:00:26.830Z,22.93
2022-08-09T22:03:02.465Z,22.89
2022-08-09T22:05:35.431Z,22.89
2022-08-09T22:08:06.161Z,22.82
2022-08-09T22:10:33.155Z,22.73
2022-08-09T22:13:07.222Z,22.62
2022-08-09T22:15:39.688Z,22.59
2022-08-09T22:18:08.334Z,22.67
2022-08-09T22:20:39.766Z,22.71
2022-08-09T22:23:10.429Z,22.66
2022-08-09T22:26:05.501Z,22.62
2022-08-09T22:28:32.948Z,22.55
2022-08-09T22:31:00.808Z,22.53
2022-08-09T22:33:37.683Z,22.59
2022-08-09T22:36:15.062Z,22.64
2022-08-09T22:38:46.986Z,22.58
2022-08-09T22:41:13.710Z,22.51
2022-08-09T22:44:01.472Z,22.43
2022-08-09T22:48:16.014Z,22.38
2022-08-09T22:49:14.030Z,22.35
2022-08-09T22:51:43.551Z,22.34
2022-08-09T22:54:16.801Z,22.33
2022-08-09T22:56:50.888Z,22.32
2022-08-09T22:59:55.675Z,22.25
2022-08-09T23:02:10.715Z,22.20
2022-08-09T23:04:42.428Z,22.19
2022-08-09T23:08:21.072Z,22.17
2022-08-09T23:10:14.608Z,22.13
2022-08-09T23:12:41.329Z,22.03
2022-08-09T23:15:08.303Z,21.98
2022-08-09T23:17:35.257Z,21.91
2022-08-09T23:20:07.808Z,21.88
2022-08-09T23:22:35.753Z,21.87
2022-08-09T23:25:04.687Z,21.84
2022-08-09T23:27:32.068Z,21.74
2022-08-09T23:29:59.197Z,21.73
2022-08-09T23:32:25.903Z,21.69
2022-08-09T23:34:52.565Z,21.61
2022-08-09T23:37:21.361Z,21.60
2022-08-09T23:39:48.644Z,21.58
2022-08-09T23:42:15.517Z,21.56
2022-08-09T23:44:42.273Z,21.56
2022-08-09T23:47:09.040Z,21.58
2022-08-09T23:49:35.666Z,21.52
2022-08-09T23:52:02.385Z,21.48
2022-08-09T23:54:29.082Z,21.44
2022-08-09T23:56:58.272Z,21.40
2022-08-09T23:59:25.635Z,21.39
